createdAt,value
2018-08-03T00:01:33.468Z,3.10
2018-08-03T00:04:02.704Z,3.70
2018-08-03T00:06:31.963Z,2.97
2018-08-03T00:09:01.201Z,2.77
2018-08-03T00:11:30.238Z,2.40
2018-08-03T00:13:59.530Z,3.97
2018-08-03T00:16:28.822Z,3.07
2018-08-03T00:18:58.129Z,2.57
2018-08-03T00:21:27.430Z,3.30
2018-08-03T00:23:56.685Z,2.93
2018-08-03T00:26:25.937Z,2.93
2018-08-03T00:28:55.213Z,2.80
2018-08-03T00:31:24.456Z,3.13
2018-08-03T00:33:53.703Z,3.27
2018-08-03T00:36:22.948Z,3.83
2018-08-03T00:38:52.216Z,3.80
2018-08-03T00:41:21.486Z,3.10
2018-08-03T00:43:50.878Z,3.87
2018-08-03T00:46:20.150Z,2.50
2018-08-03T00:48:49.601Z,3.63
2018-08-03T00:51:18.861Z,3.30
2018-08-03T00:53:48.216Z,2.57
2018-08-03T00:56:17.462Z,3.80
2018-08-03T00:58:46.840Z,3.83
2018-08-03T01:01:16.071Z,3.17
2018-08-03T01:03:45.280Z,3.40
2018-08-03T01:06:14.624Z,3.70
2018-08-03T01:08:44.935Z,3.77
2018-08-03T01:11:14.230Z,4.13
2018-08-03T01:13:43.491Z,3.87
2018-08-03T01:16:12.743Z,3.03
2018-08-03T01:18:42.022Z,3.57
2018-08-03T01:21:11.278Z,3.43
2018-08-03T01:23:40.586Z,3.43
2018-08-03T01:26:09.866Z,2.87
2018-08-03T01:28:39.146Z,2.43
2018-08-03T01:31:08.406Z,4.17
2018-08-03T01:33:37.659Z,2.93
2018-08-03T01:36:06.929Z,3.17
2018-08-03T01:38:36.195Z,2.90
2018-08-03T01:41:05.445Z,4.47
2018-08-03T01:43:34.713Z,3.63
2018-08-03T01:46:03.989Z,3.50
2018-08-03T01:48:33.289Z,2.63
2018-08-03T01:51:02.596Z,2.90
2018-08-03T01:53:31.882Z,3.60
2018-08-03T01:56:01.201Z,2.93
2018-08-03T01:58:30.466Z,4.00
2018-08-03T02:00:59.737Z,3.30
2018-08-03T02:03:29.018Z,2.87
2018-08-03T02:05:58.289Z,3.77
2018-08-03T02:08:27.615Z,2.93
2018-08-03T02:10:56.981Z,3.53
2018-08-03T02:13:26.310Z,3.77
2018-08-03T02:15:55.719Z,3.50
2018-08-03T02:18:25.067Z,2.77
2018-08-03T02:20:54.322Z,3.07
2018-08-03T02:23:23.614Z,3.53
2018-08-03T02:25:52.908Z,3.83
2018-08-03T02:28:22.197Z,3.10
2018-08-03T02:30:51.466Z,3.33
2018-08-03T02:33:20.739Z,3.37
2018-08-03T02:35:50.069Z,2.90
2018-08-03T02:38:19.330Z,2.67
2018-08-03T02:40:48.601Z,3.23
2018-08-03T02:43:17.888Z,2.80
2018-08-03T02:45:47.132Z,4.20
2018-08-03T02:48:16.437Z,2.13
2018-08-03T02:50:45.728Z,3.30
2018-08-03T02:53:14.990Z,3.10
2018-08-03T02:55:44.427Z,2.70
2018-08-03T02:58:13.719Z,2.60
2018-08-03T03:00:43.000Z,3.43
2018-08-03T03:03:12.278Z,3.17
2018-08-03T03:05:41.571Z,4.13
2018-08-03T03:08:10.878Z,3.63
2018-08-03T03:10:40.148Z,3.43
2018-08-03T03:13:09.420Z,3.20
2018-08-03T03:15:38.710Z,3.50
2018-08-03T03:18:08.010Z,2.57
2018-08-03T03:20:37.331Z,2.80
2018-08-03T03:23:06.566Z,3.73
2018-08-03T03:25:35.925Z,4.07
2018-08-03T03:28:05.237Z,3.93
2018-08-03T03:30:34.507Z,3.80
2018-08-03T03:33:03.954Z,3.73
2018-08-03T03:35:33.238Z,3.03
2018-08-03T03:38:02.629Z,3.30
2018-08-03T03:40:31.914Z,2.87
2018-08-03T03:43:01.193Z,3.37
2018-08-03T03:45:30.483Z,3.43
2018-08-03T03:47:59.750Z,4.23
2018-08-03T03:50:29.037Z,3.70
2018-08-03T03:52:58.303Z,3.47
2018-08-03T03:55:27.550Z,2.90
2018-08-03T03:57:56.889Z,3.10
2018-08-03T04:00:26.192Z,2.90
2018-08-03T04:02:55.461Z,3.20
2018-08-03T04:05:24.746Z,3.83
2018-08-03T04:07:54.003Z,3.20
2018-08-03T04:10:23.308Z,4.33
2018-08-03T04:12:52.623Z,2.90
2018-08-03T04:15:21.922Z,3.47
2018-08-03T04:17:51.182Z,3.70
2018-08-03T04:20:20.467Z,2.93
2018-08-03T04:22:49.724Z,2.83
2018-08-03T04:25:19.011Z,3.70
2018-08-03T04:27:48.334Z,3.47
2018-08-03T04:30:17.413Z,3.90
2018-08-03T04:32:46.726Z,4.50
2018-08-03T04:35:16.015Z,3.50
2018-08-03T04:37:45.366Z,3.63
2018-08-03T04:40:14.721Z,3.43
2018-08-03T04:42:44.014Z,3.43
2018-08-03T04:45:13.403Z,2.93
2018-08-03T04:47:42.686Z,3.60
2018-08-03T04:50:12.002Z,3.27
2018-08-03T04:52:41.270Z,4.00
2018-08-03T04:55:11.126Z,4.20
2018-08-03T04:57:40.405Z,4.33
2018-08-03T05:00:09.739Z,4.17
2018-08-03T05:02:39.052Z,3.93
2018-08-03T05:05:08.435Z,3.50
2018-08-03T05:07:37.760Z,3.77
2018-08-03T05:10:06.817Z,2.83
2018-08-03T05:12:36.419Z,4.17
2018-08-03T05:15:07.087Z,4.00
2018-08-03T05:17:36.557Z,4.30
2018-08-03T05:20:06.588Z,3.93
2018-08-03T05:22:35.915Z,3.37
2018-08-03T05:25:05.878Z,4.60
2018-08-03T05:27:35.191Z,6.43
2018-08-03T05:30:05.338Z,5.57
2018-08-03T05:32:34.662Z,7.13
2018-08-03T05:35:04.213Z,5.37
2018-08-03T05:37:33.386Z,5.47
2018-08-03T05:40:02.745Z,5.83
2018-08-03T05:42:32.049Z,5.47
2018-08-03T05:45:01.392Z,5.40
2018-08-03T05:47:30.943Z,5.23
2018-08-03T05:50:00.242Z,3.97
2018-08-03T05:52:29.574Z,5.40
2018-08-03T05:54:58.954Z,4.17
2018-08-03T05:57:28.314Z,4.87
2018-08-03T05:59:57.739Z,5.65
2018-08-03T06:02:27.035Z,5.08
2018-08-03T06:04:56.329Z,5.12
2018-08-03T06:07:25.609Z,5.33
2018-08-03T06:09:54.861Z,5.33
2018-08-03T06:12:24.202Z,5.40
2018-08-03T06:14:53.487Z,4.67
2018-08-03T06:17:22.807Z,4.70
2018-08-03T06:19:52.091Z,4.37
2018-08-03T06:22:21.405Z,5.83
2018-08-03T06:24:50.649Z,5.03
2018-08-03T06:27:20.091Z,5.50
2018-08-03T06:29:49.555Z,4.92
2018-08-03T06:32:18.793Z,5.37
2018-08-03T06:34:48.127Z,5.05
2018-08-03T06:37:17.467Z,4.92
2018-08-03T06:39:46.786Z,4.72
2018-08-03T06:42:16.109Z,5.05
2018-08-03T06:44:45.465Z,5.00
2018-08-03T06:47:14.566Z,5.12
2018-08-03T06:49:43.882Z,5.43
2018-08-03T06:52:13.349Z,4.97
2018-08-03T06:54:42.699Z,5.17
2018-08-03T06:57:12.092Z,6.00
2018-08-03T06:59:41.376Z,4.47
2018-08-03T07:02:10.802Z,5.50
2018-08-03T07:04:40.123Z,4.67
2018-08-03T07:07:09.444Z,5.07
2018-08-03T07:09:38.798Z,4.17
2018-08-03T07:12:08.155Z,4.57
2018-08-03T07:14:37.470Z,5.40
2018-08-03T07:17:07.149Z,4.67
2018-08-03T07:19:36.529Z,5.00
2018-08-03T07:22:05.850Z,3.83
2018-08-03T07:24:35.210Z,5.00
2018-08-03T07:27:04.266Z,4.47
2018-08-03T07:29:33.611Z,5.07
2018-08-03T07:32:02.847Z,4.47
2018-08-03T07:34:32.470Z,4.33
2018-08-03T07:37:01.867Z,4.90
2018-08-03T07:39:31.227Z,3.83
2018-08-03T07:42:00.539Z,3.92
2018-08-03T07:44:29.785Z,4.55
2018-08-03T07:46:59.037Z,3.25
2018-08-03T07:49:28.412Z,4.47
2018-08-03T07:51:57.841Z,3.55
2018-08-03T07:54:27.234Z,4.43
2018-08-03T07:56:57.383Z,3.95
2018-08-03T07:59:26.712Z,4.03
2018-08-03T08:01:55.998Z,4.17
2018-08-03T08:04:25.329Z,4.28
2018-08-03T08:06:54.608Z,4.15
2018-08-03T08:09:23.895Z,4.78
2018-08-03T08:11:54.176Z,3.95
2018-08-03T08:14:23.490Z,3.87
2018-08-03T08:16:52.753Z,4.37
2018-08-03T08:19:22.062Z,3.52
2018-08-03T08:21:51.364Z,3.55
2018-08-03T08:24:20.672Z,3.90
2018-08-03T08:26:49.962Z,4.47
2018-08-03T08:29:19.328Z,4.25
2018-08-03T08:31:48.661Z,3.42
2018-08-03T08:34:18.034Z,4.53
2018-08-03T08:36:47.290Z,3.47
2018-08-03T08:39:16.605Z,3.83
2018-08-03T08:41:45.889Z,4.15
2018-08-03T08:44:15.171Z,4.30
2018-08-03T08:46:44.490Z,3.90
2018-08-03T08:49:13.943Z,4.40
2018-08-03T08:51:43.199Z,3.45
2018-08-03T08:54:12.223Z,3.72
2018-08-03T08:56:41.513Z,4.62
2018-08-03T08:59:10.917Z,4.00
2018-08-03T09:01:40.308Z,4.53
2018-08-03T09:04:09.620Z,3.37
2018-08-03T09:06:38.982Z,3.00
2018-08-03T09:09:10.374Z,3.90
2018-08-03T09:11:40.068Z,3.95
2018-08-03T09:14:09.135Z,3.55
2018-08-03T09:16:38.466Z,3.87
2018-08-03T09:19:07.839Z,3.25
2018-08-03T09:21:37.188Z,4.45
2018-08-03T09:24:06.526Z,3.37
2018-08-03T09:26:35.872Z,3.77
2018-08-03T09:29:05.221Z,3.60
2018-08-03T09:31:35.601Z,3.65
2018-08-03T09:34:04.987Z,3.77
2018-08-03T09:36:34.596Z,3.83
2018-08-03T09:39:05.232Z,3.72
2018-08-03T09:41:34.694Z,3.60
2018-08-03T09:44:03.998Z,3.80
2018-08-03T09:46:33.454Z,3.20
2018-08-03T09:49:02.857Z,3.40
2018-08-03T09:51:32.174Z,3.70
2018-08-03T09:54:01.483Z,3.45
2018-08-03T09:56:30.987Z,3.25
2018-08-03T09:59:00.408Z,4.25
2018-08-03T10:01:29.786Z,3.67
2018-08-03T10:03:59.432Z,4.37
2018-08-03T10:06:28.773Z,4.00
2018-08-03T10:08:58.033Z,3.70
2018-08-03T10:11:27.408Z,3.40
2018-08-03T10:13:56.737Z,3.17
2018-08-03T10:16:26.145Z,4.33
2018-08-03T10:18:55.522Z,4.45
2018-08-03T10:21:24.911Z,3.95
2018-08-03T10:23:54.195Z,3.58
2018-08-03T10:26:23.674Z,3.42
2018-08-03T10:28:53.343Z,3.90
2018-08-03T10:31:22.808Z,3.72
2018-08-03T10:33:52.403Z,3.45
2018-08-03T10:36:21.750Z,3.47
2018-08-03T10:38:51.054Z,4.15
2018-08-03T10:41:20.417Z,4.03
2018-08-03T10:43:49.851Z,3.15
2018-08-03T10:46:19.255Z,3.83
2018-08-03T10:48:55.556Z,3.17
2018-08-03T10:51:24.886Z,3.65
2018-08-03T10:53:54.250Z,3.58
2018-08-03T10:56:23.702Z,4.08
2018-08-03T10:58:53.063Z,3.72
2018-08-03T11:01:22.614Z,3.50
2018-08-03T11:03:52.382Z,4.00
2018-08-03T11:06:21.716Z,4.25
2018-08-03T11:08:51.030Z,3.62
2018-08-03T11:11:21.226Z,3.37
2018-08-03T11:13:57.079Z,4.03
2018-08-03T11:16:26.379Z,3.45
2018-08-03T11:18:55.786Z,4.33
2018-08-03T11:21:25.142Z,4.95
2018-08-03T11:23:54.507Z,4.05
2018-08-03T11:26:23.875Z,3.27
2018-08-03T11:28:53.214Z,3.87
2018-08-03T11:31:23.645Z,3.87
2018-08-03T11:33:52.954Z,3.20
2018-08-03T11:36:22.283Z,3.02
2018-08-03T11:38:51.628Z,3.55
2018-08-03T11:41:20.946Z,3.65
2018-08-03T11:43:50.400Z,3.10
2018-08-03T11:46:19.863Z,4.20
2018-08-03T11:48:49.318Z,3.00
2018-08-03T11:51:18.758Z,3.17
2018-08-03T11:53:49.168Z,3.30
2018-08-03T11:56:18.652Z,2.98
2018-08-03T11:58:48.950Z,2.72
2018-08-03T12:01:18.070Z,3.10
2018-08-03T12:03:47.842Z,3.40
2018-08-03T12:06:17.194Z,3.35
2018-08-03T12:08:46.734Z,3.95
2018-08-03T12:11:16.168Z,3.35
2018-08-03T12:13:45.551Z,3.50
2018-08-03T12:16:15.045Z,3.47
2018-08-03T12:18:44.469Z,3.22
2018-08-03T12:21:13.777Z,3.12
2018-08-03T12:23:43.219Z,3.35
2018-08-03T12:26:12.909Z,3.20
2018-08-03T12:28:42.226Z,3.35
2018-08-03T12:31:11.569Z,3.45
2018-08-03T12:33:40.605Z,3.20
2018-08-03T12:36:09.976Z,3.10
2018-08-03T12:38:39.322Z,2.90
2018-08-03T12:41:08.671Z,3.10
2018-08-03T12:43:38.218Z,3.17
2018-08-03T12:46:07.566Z,3.22
2018-08-03T12:48:36.866Z,3.10
2018-08-03T12:51:06.209Z,2.58
2018-08-03T12:53:36.023Z,2.62
2018-08-03T12:56:05.375Z,2.75
2018-08-03T12:58:34.722Z,3.25
2018-08-03T13:01:04.060Z,2.92
2018-08-03T13:03:33.431Z,3.10
2018-08-03T13:06:02.767Z,2.83
2018-08-03T13:08:32.265Z,2.62
2018-08-03T13:11:01.448Z,2.80
2018-08-03T13:13:30.856Z,3.10
2018-08-03T13:16:00.145Z,3.27
2018-08-03T13:18:29.469Z,3.00
2018-08-03T13:20:58.871Z,3.08
2018-08-03T13:23:28.246Z,2.90
2018-08-03T13:25:57.667Z,2.65
2018-08-03T13:28:26.979Z,2.98
2018-08-03T13:30:56.359Z,3.17
2018-08-03T13:33:25.779Z,3.10
2018-08-03T13:35:55.184Z,2.55
2018-08-03T13:38:24.523Z,2.87
2018-08-03T13:40:54.027Z,3.25
2018-08-03T13:43:23.495Z,2.83
2018-08-03T13:45:52.645Z,3.00
2018-08-03T13:48:28.816Z,3.40
2018-08-03T13:50:58.222Z,2.90
2018-08-03T13:53:27.555Z,2.55
2018-08-03T13:55:57.065Z,3.27
2018-08-03T13:58:26.471Z,2.20
2018-08-03T14:01:13.059Z,3.08
2018-08-03T14:03:42.680Z,3.70
2018-08-03T14:06:12.087Z,2.60
2018-08-03T14:08:44.099Z,2.42
2018-08-03T14:11:13.938Z,2.52
2018-08-03T14:13:43.341Z,2.75
2018-08-03T14:16:13.039Z,3.45
2018-08-03T14:18:42.813Z,2.98
2018-08-03T14:21:12.306Z,3.20
2018-08-03T14:23:41.660Z,2.60
2018-08-03T14:26:11.033Z,3.00
2018-08-03T14:28:40.562Z,2.20
2018-08-03T14:31:09.682Z,2.87
2018-08-03T14:33:39.089Z,2.98
2018-08-03T14:36:08.485Z,2.65
2018-08-03T14:38:37.878Z,2.47
2018-08-03T14:41:07.415Z,2.83
2018-08-03T14:43:36.803Z,3.02
2018-08-03T14:46:06.183Z,3.72
2018-08-03T14:48:35.619Z,2.45
2018-08-03T14:51:05.162Z,2.87
2018-08-03T14:53:34.495Z,2.67
2018-08-03T14:56:03.935Z,2.90
2018-08-03T14:58:33.357Z,2.85
2018-08-03T15:01:02.941Z,2.52
2018-08-03T15:03:32.239Z,2.87
2018-08-03T15:06:01.670Z,2.60
2018-08-03T15:08:31.130Z,3.25
2018-08-03T15:11:00.517Z,2.35
2018-08-03T15:13:29.916Z,3.17
2018-08-03T15:15:58.988Z,2.55
2018-08-03T15:18:28.328Z,2.80
2018-08-03T15:20:57.701Z,3.35
2018-08-03T15:23:27.074Z,2.42
2018-08-03T15:25:56.471Z,2.58
2018-08-03T15:28:25.795Z,2.98
2018-08-03T15:30:55.160Z,3.00
2018-08-03T15:33:24.668Z,2.62
2018-08-03T15:35:54.420Z,2.60
2018-08-03T15:38:23.775Z,3.17
2018-08-03T15:40:53.170Z,2.52
2018-08-03T15:43:22.414Z,3.02
2018-08-03T15:45:51.745Z,2.80
2018-08-03T15:48:21.043Z,3.02
2018-08-03T15:50:50.410Z,3.05
2018-08-03T15:53:19.718Z,3.12
2018-08-03T15:55:49.064Z,2.98
2018-08-03T15:58:18.347Z,3.55
2018-08-03T16:00:47.710Z,2.20
2018-08-03T16:03:17.047Z,2.52
2018-08-03T16:05:46.336Z,2.52
2018-08-03T16:08:15.754Z,2.60
2018-08-03T16:10:45.040Z,2.50
2018-08-03T16:13:14.447Z,2.80
2018-08-03T16:15:43.565Z,3.08
2018-08-03T16:18:12.838Z,2.60
2018-08-03T16:20:42.119Z,3.12
2018-08-03T16:23:11.410Z,3.10
2018-08-03T16:25:40.753Z,3.02
2018-08-03T16:28:10.264Z,2.92
2018-08-03T16:30:39.594Z,2.92
2018-08-03T16:33:08.995Z,3.17
2018-08-03T16:35:38.388Z,2.70
2018-08-03T16:38:07.733Z,3.45
2018-08-03T16:40:37.146Z,2.80
2018-08-03T16:43:06.541Z,2.37
2018-08-03T16:45:35.855Z,3.20
2018-08-03T16:48:05.254Z,2.87
2018-08-03T16:50:34.757Z,2.40
2018-08-03T16:53:04.124Z,3.12
2018-08-03T16:55:33.470Z,3.22
2018-08-03T16:58:02.766Z,3.02
2018-08-03T17:00:32.065Z,2.40
2018-08-03T17:03:01.487Z,2.87
2018-08-03T17:05:30.867Z,2.83
2018-08-03T17:08:00.238Z,3.20
2018-08-03T17:10:29.685Z,2.37
2018-08-03T17:12:59.035Z,2.45
2018-08-03T17:15:28.367Z,2.70
2018-08-03T17:17:58.906Z,2.85
2018-08-03T17:20:28.844Z,2.87
2018-08-03T17:22:58.387Z,2.92
2018-08-03T17:25:28.347Z,3.47
2018-08-03T17:27:58.013Z,3.37
2018-08-03T17:30:27.427Z,2.65
2018-08-03T17:32:56.816Z,2.62
2018-08-03T17:35:26.276Z,2.60
2018-08-03T17:37:55.633Z,8.33
2018-08-03T17:40:24.951Z,3.42
2018-08-03T17:42:54.301Z,2.80
2018-08-03T17:45:23.718Z,3.17
2018-08-03T17:47:53.085Z,3.20
2018-08-03T17:50:22.378Z,2.92
2018-08-03T17:52:51.783Z,2.92
2018-08-03T17:55:21.063Z,3.33
2018-08-03T17:57:50.468Z,3.15
2018-08-03T18:00:20.027Z,2.77
2018-08-03T18:02:49.510Z,2.92
2018-08-03T18:05:19.047Z,2.35
2018-08-03T18:07:48.400Z,3.10
2018-08-03T18:10:18.092Z,2.83
2018-08-03T18:12:47.362Z,2.85
2018-08-03T18:15:16.863Z,2.33
2018-08-03T18:17:46.180Z,3.10
2018-08-03T18:20:15.667Z,2.40
2018-08-03T18:22:45.008Z,3.17
2018-08-03T18:25:14.370Z,2.45
2018-08-03T18:27:43.733Z,2.65
2018-08-03T18:30:13.069Z,3.05
2018-08-03T18:32:42.404Z,2.98
2018-08-03T18:35:11.670Z,2.70
2018-08-03T18:37:41.038Z,3.22
2018-08-03T18:40:11.087Z,2.22
2018-08-03T18:42:40.708Z,3.05
2018-08-03T18:45:10.078Z,3.30
2018-08-03T18:47:39.447Z,2.35
2018-08-03T18:50:08.822Z,3.02
2018-08-03T18:52:38.233Z,2.62
2018-08-03T18:55:07.657Z,3.12
2018-08-03T18:57:36.986Z,2.90
2018-08-03T19:00:06.999Z,3.00
2018-08-03T19:02:36.339Z,3.50
2018-08-03T19:05:07.030Z,3.20
2018-08-03T19:07:36.524Z,2.58
2018-08-03T19:10:05.900Z,2.52
2018-08-03T19:12:35.147Z,2.90
2018-08-03T19:15:04.639Z,2.98
2018-08-03T19:17:33.914Z,3.30
2018-08-03T19:20:03.415Z,2.92
2018-08-03T19:22:32.692Z,3.20
2018-08-03T19:25:02.099Z,3.35
2018-08-03T19:27:31.422Z,3.15
2018-08-03T19:30:00.792Z,2.85
2018-08-03T19:32:30.115Z,2.87
2018-08-03T19:34:59.342Z,2.93
2018-08-03T19:37:29.418Z,2.77
2018-08-03T19:39:58.777Z,3.05
2018-08-03T19:42:28.167Z,5.20
2018-08-03T19:44:57.476Z,3.17
2018-08-03T19:47:27.043Z,3.33
2018-08-03T19:49:56.327Z,2.33
2018-08-03T19:52:25.855Z,2.60
2018-08-03T19:54:55.122Z,3.03
2018-08-03T19:57:24.385Z,2.17
2018-08-03T19:59:53.748Z,2.27
2018-08-03T20:02:23.039Z,2.97
2018-08-03T20:04:52.342Z,2.30
2018-08-03T20:07:22.215Z,3.53
2018-08-03T20:09:51.474Z,3.03
2018-08-03T20:12:20.758Z,2.80
2018-08-03T20:14:50.059Z,3.33
2018-08-03T20:17:19.081Z,3.63
2018-08-03T20:19:48.287Z,2.93
2018-08-03T20:22:18.886Z,2.73
2018-08-03T20:24:48.285Z,2.93
2018-08-03T20:27:17.714Z,2.77
2018-08-03T20:29:47.074Z,2.43
2018-08-03T20:32:16.402Z,3.13
2018-08-03T20:34:45.828Z,2.60
2018-08-03T20:37:15.115Z,2.17
2018-08-03T20:39:44.461Z,3.43
2018-08-03T20:42:13.738Z,2.37
2018-08-03T20:44:43.092Z,3.00
2018-08-03T20:47:12.400Z,2.50
2018-08-03T20:49:41.790Z,2.57
2018-08-03T20:52:11.138Z,2.47
2018-08-03T20:54:43.314Z,2.00
2018-08-03T20:57:12.618Z,2.27
2018-08-03T20:59:42.038Z,2.53
2018-08-03T21:02:11.344Z,3.30
2018-08-03T21:04:40.728Z,3.00
2018-08-03T21:07:09.999Z,3.13
2018-08-03T21:09:39.314Z,2.60
2018-08-03T21:12:08.744Z,1.87
2018-08-03T21:14:38.087Z,3.13
2018-08-03T21:17:07.162Z,3.67
2018-08-03T21:19:36.498Z,2.83
2018-08-03T21:22:05.812Z,2.40
2018-08-03T21:24:40.276Z,2.17
2018-08-03T21:27:09.635Z,2.90
2018-08-03T21:29:39.321Z,2.13
2018-08-03T21:32:08.675Z,2.17
2018-08-03T21:34:38.011Z,2.63
2018-08-03T21:37:07.297Z,1.97
2018-08-03T21:39:36.837Z,2.90
2018-08-03T21:42:06.338Z,2.57
2018-08-03T21:44:35.784Z,2.80
2018-08-03T21:47:04.792Z,2.27
2018-08-03T21:49:34.049Z,2.63
2018-08-03T21:52:03.370Z,2.47
2018-08-03T21:54:32.641Z,2.20
2018-08-03T21:57:01.967Z,2.70
2018-08-03T21:59:31.263Z,2.10
2018-08-03T22:02:00.296Z,2.47
2018-08-03T22:04:29.526Z,2.93
2018-08-03T22:06:58.793Z,2.30
2018-08-03T22:09:27.782Z,2.40
2018-08-03T22:11:57.143Z,2.03
2018-08-03T22:14:26.362Z,2.07
2018-08-03T22:16:55.678Z,2.33
2018-08-03T22:19:24.931Z,3.00
2018-08-03T22:21:54.176Z,2.43
2018-08-03T22:24:23.533Z,2.90
2018-08-03T22:26:52.922Z,2.40
2018-08-03T22:29:22.283Z,2.37
2018-08-03T22:31:51.655Z,1.73
2018-08-03T22:34:21.013Z,2.70
2018-08-03T22:36:50.357Z,2.47
2018-08-03T22:39:19.819Z,2.30
2018-08-03T22:41:49.221Z,2.83
2018-08-03T22:44:18.529Z,2.03
2018-08-03T22:46:47.805Z,2.97
2018-08-03T22:49:16.849Z,2.50
2018-08-03T22:51:46.125Z,1.90
2018-08-03T22:54:15.380Z,3.07
2018-08-03T22:56:44.640Z,2.60
2018-08-03T22:59:13.954Z,2.77
2018-08-03T23:01:43.431Z,2.30
2018-08-03T23:04:12.693Z,2.00
2018-08-03T23:06:42.139Z,2.83
2018-08-03T23:09:11.343Z,2.07
2018-08-03T23:11:40.652Z,2.20
2018-08-03T23:14:09.878Z,2.70
2018-08-03T23:16:39.121Z,2.60
2018-08-03T23:19:08.426Z,2.37
2018-08-03T23:21:37.650Z,2.43
2018-08-03T23:24:06.966Z,2.17
2018-08-03T23:26:36.204Z,2.73
2018-08-03T23:29:05.213Z,2.33
2018-08-03T23:31:34.522Z,2.57
2018-08-03T23:34:03.829Z,2.80
2018-08-03T23:36:33.076Z,2.53
2018-08-03T23:39:02.310Z,2.00
2018-08-03T23:41:31.542Z,2.77
2018-08-03T23:44:00.818Z,3.33
2018-08-03T23:46:30.066Z,3.00
2018-08-03T23:48:59.310Z,2.60
2018-08-03T23:51:28.535Z,1.97
2018-08-03T23:53:57.801Z,2.33
2018-08-03T23:56:27.018Z,2.23
2018-08-03T23:58:56.241Z,2.80
